createdAt,value
2018-10-11T00:00:58.722Z,19.57
2018-10-11T00:03:26.819Z,18.00
2018-10-11T00:05:54.966Z,18.77
2018-10-11T00:08:23.079Z,18.33
2018-10-11T00:10:51.385Z,18.93
2018-10-11T00:13:19.503Z,18.80
2018-10-11T00:15:47.622Z,19.53
2018-10-11T00:18:15.730Z,19.60
2018-10-11T00:20:43.854Z,18.40
2018-10-11T00:23:11.969Z,18.50
2018-10-11T00:25:40.090Z,18.93
2018-10-11T00:28:08.238Z,19.60
2018-10-11T00:30:36.456Z,17.67
2018-10-11T00:33:04.557Z,18.97
2018-10-11T00:35:32.682Z,18.80
2018-10-11T00:38:00.788Z,18.57
2018-10-11T00:40:28.930Z,17.57
2018-10-11T00:42:57.047Z,20.83
2018-10-11T00:45:25.170Z,20.03
2018-10-11T00:47:53.438Z,18.60
2018-10-11T00:50:21.570Z,18.67
2018-10-11T00:52:49.693Z,19.10
2018-10-11T00:55:17.811Z,18.07
2018-10-11T00:57:45.943Z,19.00
2018-10-11T01:00:14.062Z,21.03
2018-10-11T01:02:42.218Z,19.27
2018-10-11T01:05:10.338Z,19.60
2018-10-11T01:07:38.466Z,18.40
2018-10-11T01:10:06.608Z,19.60
2018-10-11T01:12:34.732Z,19.93
2018-10-11T01:15:02.861Z,20.33
2018-10-11T01:17:30.994Z,21.10
2018-10-11T01:19:59.153Z,20.27
2018-10-11T01:22:27.262Z,20.00
2018-10-11T01:24:55.393Z,20.87
2018-10-11T01:27:23.527Z,21.10
2018-10-11T01:29:51.763Z,20.00
2018-10-11T01:32:19.774Z,19.00
2018-10-11T01:34:47.899Z,19.30
2018-10-11T01:37:16.038Z,20.70
2018-10-11T01:39:44.149Z,21.10
2018-10-11T01:42:12.372Z,20.00
2018-10-11T01:44:40.711Z,21.23
2018-10-11T01:47:08.999Z,19.90
2018-10-11T01:49:37.138Z,20.17
2018-10-11T01:52:05.258Z,20.53
2018-10-11T01:54:33.402Z,19.17
2018-10-11T01:57:01.534Z,19.60
2018-10-11T01:59:29.653Z,20.27
2018-10-11T02:01:57.793Z,19.83
2018-10-11T02:04:25.897Z,21.87
2018-10-11T02:06:54.018Z,20.37
2018-10-11T02:09:22.147Z,19.83
2018-10-11T02:11:50.262Z,20.10
2018-10-11T02:14:18.407Z,19.73
2018-10-11T02:16:46.529Z,19.10
2018-10-11T02:19:14.731Z,19.63
2018-10-11T02:21:42.837Z,19.33
2018-10-11T02:24:11.457Z,20.13
2018-10-11T02:26:39.586Z,19.70
2018-10-11T02:29:07.820Z,19.33
2018-10-11T02:31:35.947Z,19.57
2018-10-11T02:34:04.073Z,20.17
2018-10-11T02:36:32.198Z,20.27
2018-10-11T02:39:00.406Z,20.07
2018-10-11T02:41:28.526Z,21.00
2018-10-11T02:43:56.653Z,18.97
2018-10-11T02:46:24.771Z,19.57
2018-10-11T02:48:52.901Z,20.10
2018-10-11T02:51:21.049Z,19.63
2018-10-11T02:53:49.190Z,20.30
2018-10-11T02:56:19.667Z,21.23
2018-10-11T02:58:59.245Z,21.53
2018-10-11T03:01:27.382Z,22.90
2018-10-11T03:04:01.331Z,24.33
2018-10-11T03:06:29.450Z,23.03
2018-10-11T03:08:57.593Z,22.40
2018-10-11T03:11:25.726Z,22.50
2018-10-11T03:13:53.834Z,20.93
2018-10-11T03:16:21.946Z,22.07
2018-10-11T03:18:50.054Z,22.03
2018-10-11T03:21:18.189Z,21.67
2018-10-11T03:23:46.301Z,21.67
2018-10-11T03:26:14.422Z,20.07
2018-10-11T03:28:42.530Z,21.90
2018-10-11T03:31:10.666Z,20.70
2018-10-11T03:33:38.781Z,20.20
2018-10-11T03:36:07.067Z,20.83
2018-10-11T03:38:35.210Z,21.13
2018-10-11T03:41:03.331Z,20.47
2018-10-11T03:43:31.446Z,20.20
2018-10-11T03:45:59.569Z,20.20
2018-10-11T03:48:27.678Z,21.43
2018-10-11T03:50:55.834Z,21.60
2018-10-11T03:53:23.957Z,21.77
2018-10-11T03:55:52.080Z,21.30
2018-10-11T03:58:20.233Z,20.73
2018-10-11T04:00:48.367Z,20.60
2018-10-11T04:03:16.477Z,20.53
2018-10-11T04:05:44.598Z,22.07
2018-10-11T04:08:12.730Z,19.50
2018-10-11T04:10:40.869Z,19.73
2018-10-11T04:13:08.990Z,20.50
2018-10-11T04:15:37.193Z,20.80
2018-10-11T04:18:05.250Z,21.30
2018-10-11T04:20:33.365Z,28.53
2018-10-11T04:23:01.497Z,40.47
2018-10-11T04:25:29.622Z,39.73
2018-10-11T04:27:57.758Z,27.40
2018-10-11T04:30:26.222Z,27.20
2018-10-11T04:32:54.706Z,27.47
2018-10-11T04:35:22.824Z,23.47
2018-10-11T04:37:50.953Z,22.50
2018-10-11T04:40:19.086Z,22.40
2018-10-11T04:42:47.244Z,25.13
2018-10-11T04:45:15.360Z,22.80
2018-10-11T04:47:43.489Z,24.20
2018-10-11T04:50:11.609Z,25.63
2018-10-11T04:52:39.777Z,25.00
2018-10-11T04:55:08.022Z,24.90
2018-10-11T04:57:36.161Z,25.27
2018-10-11T05:00:04.281Z,25.50
2018-10-11T05:02:32.405Z,26.73
2018-10-11T05:05:00.525Z,27.47
2018-10-11T05:07:28.662Z,26.30
2018-10-11T05:09:56.789Z,25.97
2018-10-11T05:12:24.930Z,24.43
2018-10-11T05:14:53.218Z,22.43
2018-10-11T05:17:21.410Z,24.10
2018-10-11T05:19:49.474Z,24.53
2018-10-11T05:22:17.601Z,28.50
2018-10-11T05:24:45.725Z,36.87
2018-10-11T05:27:13.860Z,36.57
2018-10-11T05:29:42.174Z,25.00
2018-10-11T05:32:10.308Z,23.20
2018-10-11T05:34:38.437Z,22.40
2018-10-11T05:37:06.710Z,22.83
2018-10-11T05:39:34.846Z,21.70
2018-10-11T05:42:03.170Z,22.83
